sensor_id;sensor_type;location;lat;lon;timestamp;P1;durP1;ratioP1;P2;durP2;ratioP2
35444;SDS011;21562;49.476;6.086;2024-01-15T00:01:56;70.75;;;17.30;;
35444;SDS011;21562;49.476;6.086;2024-01-15T00:04:21;65.85;;;19.08;;
35444;SDS011;21562;49.476;6.086;2024-01-15T00:06:47;69.25;;;16.92;;
35444;SDS011;21562;49.476;6.086;2024-01-15T00:09:14;67.90;;;17.35;;
35444;SDS011;21562;49.476;6.086;2024-01-15T00:11:39;67.70;;;15.85;;
35444;SDS011;21562;49.476;6.086;2024-01-15T00:14:05;72.10;;;18.15;;
35444;SDS011;21562;49.476;6.086;2024-01-15T00:16:31;70.03;;;17.10;;
35444;SDS011;21562;49.476;6.086;2024-01-15T00:18:56;85.95;;;20.38;;
35444;SDS011;21562;49.476;6.086;2024-01-15T00:21:22;115.72;;;31.90;;
35444;SDS011;21562;49.476;6.086;2024-01-15T00:23:48;77.00;;;20.88;;
35444;SDS011;21562;49.476;6.086;2024-01-15T00:26:14;68.47;;;18.10;;
35444;SDS011;21562;49.476;6.086;2024-01-15T00:28:40;76.15;;;18.38;;
35444;SDS011;21562;49.476;6.086;2024-01-15T00:31:06;72.97;;;18.02;;
35444;SDS011;21562;49.476;6.086;2024-01-15T00:33:31;83.45;;;19.67;;
35444;SDS011;21562;49.476;6.086;2024-01-15T00:35:57;103.63;;;29.40;;
35444;SDS011;21562;49.476;6.086;2024-01-15T00:38:23;74.60;;;18.65;;
35444;SDS011;21562;49.476;6.086;2024-01-15T00:40:49;82.15;;;20.88;;
35444;SDS011;21562;49.476;6.086;2024-01-15T00:43:15;81.50;;;21.30;;
35444;SDS011;21562;49.476;6.086;2024-01-15T00:45:43;85.53;;;17.65;;
35444;SDS011;21562;49.476;6.086;2024-01-15T00:48:09;82.22;;;19.27;;
35444;SDS011;21562;49.476;6.086;2024-01-15T00:50:34;84.25;;;19.60;;
35444;SDS011;21562;49.476;6.086;2024-01-15T00:53:00;86.97;;;18.63;;
35444;SDS011;21562;49.476;6.086;2024-01-15T00:55:28;90.30;;;25.48;;
35444;SDS011;21562;49.476;6.086;2024-01-15T00:57:54;88.10;;;19.50;;
35444;SDS011;21562;49.476;6.086;2024-01-15T01:00:20;68.60;;;16.05;;
35444;SDS011;21562;49.476;6.086;2024-01-15T01:02:45;97.80;;;23.58;;
35444;SDS011;21562;49.476;6.086;2024-01-15T01:05:11;83.50;;;20.63;;
35444;SDS011;21562;49.476;6.086;2024-01-15T01:07:37;79.93;;;19.20;;
35444;SDS011;21562;49.476;6.086;2024-01-15T01:10:03;102.22;;;28.25;;
35444;SDS011;21562;49.476;6.086;2024-01-15T01:12:29;82.45;;;21.10;;
35444;SDS011;21562;49.476;6.086;2024-01-15T01:14:55;82.00;;;18.92;;
35444;SDS011;21562;49.476;6.086;2024-01-15T01:17:21;82.43;;;19.65;;
35444;SDS011;21562;49.476;6.086;2024-01-15T01:19:47;105.25;;;32.05;;
35444;SDS011;21562;49.476;6.086;2024-01-15T01:22:12;82.93;;;18.42;;
35444;SDS011;21562;49.476;6.086;2024-01-15T01:24:38;80.90;;;23.77;;
35444;SDS011;21562;49.476;6.086;2024-01-15T01:27:04;76.30;;;20.50;;
35444;SDS011;21562;49.476;6.086;2024-01-15T01:29:29;78.95;;;19.10;;
35444;SDS011;21562;49.476;6.086;2024-01-15T01:31:55;94.63;;;29.95;;
35444;SDS011;21562;49.476;6.086;2024-01-15T01:34:21;83.45;;;20.55;;
35444;SDS011;21562;49.476;6.086;2024-01-15T01:36:47;84.15;;;26.58;;
35444;SDS011;21562;49.476;6.086;2024-01-15T01:39:13;81.35;;;19.35;;
35444;SDS011;21562;49.476;6.086;2024-01-15T01:41:38;76.07;;;19.40;;
35444;SDS011;21562;49.476;6.086;2024-01-15T01:44:05;58.47;;;17.05;;
35444;SDS011;21562;49.476;6.086;2024-01-15T01:46:32;70.35;;;19.40;;
35444;SDS011;21562;49.476;6.086;2024-01-15T01:48:58;63.15;;;16.73;;
35444;SDS011;21562;49.476;6.086;2024-01-15T01:51:30;61.33;;;18.55;;
35444;SDS011;21562;49.476;6.086;2024-01-15T01:53:56;64.32;;;15.48;;
35444;SDS011;21562;49.476;6.086;2024-01-15T01:56:21;69.68;;;18.45;;
35444;SDS011;21562;49.476;6.086;2024-01-15T01:58:47;69.18;;;17.65;;
35444;SDS011;21562;49.476;6.086;2024-01-15T02:01:13;65.32;;;16.88;;
35444;SDS011;21562;49.476;6.086;2024-01-15T02:03:41;70.97;;;18.40;;
35444;SDS011;21562;49.476;6.086;2024-01-15T02:06:08;70.68;;;20.58;;
35444;SDS011;21562;49.476;6.086;2024-01-15T02:08:34;76.10;;;19.52;;
35444;SDS011;21562;49.476;6.086;2024-01-15T02:11:00;83.80;;;23.73;;
35444;SDS011;21562;49.476;6.086;2024-01-15T02:13:26;75.15;;;17.38;;
35444;SDS011;21562;49.476;6.086;2024-01-15T02:15:51;76.57;;;20.35;;
35444;SDS011;21562;49.476;6.086;2024-01-15T02:18:17;75.30;;;18.85;;
35444;SDS011;21562;49.476;6.086;2024-01-15T02:20:43;78.65;;;20.45;;
35444;SDS011;21562;49.476;6.086;2024-01-15T02:23:14;71.07;;;17.80;;
35444;SDS011;21562;49.476;6.086;2024-01-15T02:25:45;78.72;;;21.73;;
35444;SDS011;21562;49.476;6.086;2024-01-15T02:28:12;77.45;;;18.38;;
35444;SDS011;21562;49.476;6.086;2024-01-15T02:30:40;70.50;;;18.00;;
35444;SDS011;21562;49.476;6.086;2024-01-15T02:33:07;79.32;;;19.48;;
35444;SDS011;21562;49.476;6.086;2024-01-15T02:35:33;75.00;;;17.45;;
35444;SDS011;21562;49.476;6.086;2024-01-15T02:38:01;83.13;;;19.77;;
35444;SDS011;21562;49.476;6.086;2024-01-15T02:40:28;85.63;;;20.65;;
35444;SDS011;21562;49.476;6.086;2024-01-15T02:42:53;78.43;;;21.05;;
35444;SDS011;21562;49.476;6.086;2024-01-15T02:45:19;74.38;;;17.40;;
35444;SDS011;21562;49.476;6.086;2024-01-15T02:47:46;69.75;;;19.55;;
35444;SDS011;21562;49.476;6.086;2024-01-15T02:50:11;73.18;;;20.60;;
35444;SDS011;21562;49.476;6.086;2024-01-15T02:52:37;75.85;;;18.77;;
35444;SDS011;21562;49.476;6.086;2024-01-15T02:55:03;82.25;;;21.55;;
35444;SDS011;21562;49.476;6.086;2024-01-15T02:57:29;72.18;;;20.67;;
35444;SDS011;21562;49.476;6.086;2024-01-15T02:59:55;78.78;;;20.05;;
35444;SDS011;21562;49.476;6.086;2024-01-15T03:02:20;73.53;;;20.25;;
35444;SDS011;21562;49.476;6.086;2024-01-15T03:04:46;88.53;;;22.38;;
35444;SDS011;21562;49.476;6.086;2024-01-15T03:07:12;72.68;;;20.38;;
35444;SDS011;21562;49.476;6.086;2024-01-15T03:09:38;83.90;;;21.25;;
35444;SDS011;21562;49.476;6.086;2024-01-15T03:12:03;76.65;;;21.23;;
35444;SDS011;21562;49.476;6.086;2024-01-15T03:14:29;77.88;;;20.55;;
35444;SDS011;21562;49.476;6.086;2024-01-15T03:16:55;90.32;;;23.20;;
35444;SDS011;21562;49.476;6.086;2024-01-15T03:19:21;75.80;;;20.30;;
35444;SDS011;21562;49.476;6.086;2024-01-15T03:21:47;73.75;;;20.25;;
35444;SDS011;21562;49.476;6.086;2024-01-15T03:24:12;80.25;;;21.25;;
35444;SDS011;21562;49.476;6.086;2024-01-15T03:26:38;75.57;;;21.10;;
35444;SDS011;21562;49.476;6.086;2024-01-15T03:29:04;76.20;;;21.88;;
35444;SDS011;21562;49.476;6.086;2024-01-15T03:31:29;82.68;;;20.33;;
35444;SDS011;21562;49.476;6.086;2024-01-15T03:33:55;78.57;;;21.55;;
35444;SDS011;21562;49.476;6.086;2024-01-15T03:36:21;70.53;;;20.17;;
35444;SDS011;21562;49.476;6.086;2024-01-15T03:38:47;75.93;;;20.15;;
35444;SDS011;21562;49.476;6.086;2024-01-15T03:41:13;78.13;;;22.33;;
35444;SDS011;21562;49.476;6.086;2024-01-15T03:43:38;85.10;;;22.58;;
35444;SDS011;21562;49.476;6.086;2024-01-15T03:46:05;76.38;;;19.30;;
35444;SDS011;21562;49.476;6.086;2024-01-15T03:48:31;86.00;;;22.75;;
35444;SDS011;21562;49.476;6.086;2024-01-15T03:50:56;72.03;;;19.98;;
35444;SDS011;21562;49.476;6.086;2024-01-15T03:53:22;81.07;;;20.75;;
35444;SDS011;21562;49.476;6.086;2024-01-15T03:55:48;76.90;;;21.88;;
35444;SDS011;21562;49.476;6.086;2024-01-15T03:58:14;70.97;;;20.42;;
35444;SDS011;21562;49.476;6.086;2024-01-15T04:00:40;79.13;;;20.55;;
35444;SDS011;21562;49.476;6.086;2024-01-15T04:03:07;73.60;;;21.27;;
35444;SDS011;21562;49.476;6.086;2024-01-15T04:05:32;74.38;;;20.00;;
35444;SDS011;21562;49.476;6.086;2024-01-15T04:07:58;70.22;;;20.95;;
35444;SDS011;21562;49.476;6.086;2024-01-15T04:10:24;72.80;;;21.05;;
35444;SDS011;21562;49.476;6.086;2024-01-15T04:12:49;74.30;;;20.73;;
35444;SDS011;21562;49.476;6.086;2024-01-15T04:15:15;68.30;;;20.08;;
35444;SDS011;21562;49.476;6.086;2024-01-15T04:17:41;78.88;;;21.55;;
35444;SDS011;21562;49.476;6.086;2024-01-15T04:20:06;75.68;;;22.65;;
35444;SDS011;21562;49.476;6.086;2024-01-15T04:22:33;67.55;;;18.80;;
35444;SDS011;21562;49.476;6.086;2024-01-15T04:25:00;74.97;;;21.65;;
35444;SDS011;21562;49.476;6.086;2024-01-15T04:27:26;69.75;;;19.48;;
35444;SDS011;21562;49.476;6.086;2024-01-15T04:29:52;78.03;;;20.90;;
35444;SDS011;21562;49.476;6.086;2024-01-15T04:32:18;76.80;;;22.02;;
35444;SDS011;21562;49.476;6.086;2024-01-15T04:34:44;75.85;;;20.85;;
35444;SDS011;21562;49.476;6.086;2024-01-15T04:37:09;64.13;;;19.95;;
35444;SDS011;21562;49.476;6.086;2024-01-15T04:39:35;77.43;;;21.33;;
35444;SDS011;21562;49.476;6.086;2024-01-15T04:42:01;72.43;;;19.00;;
35444;SDS011;21562;49.476;6.086;2024-01-15T04:44:27;73.28;;;20.20;;
35444;SDS011;21562;49.476;6.086;2024-01-15T04:46:53;78.18;;;23.27;;
35444;SDS011;21562;49.476;6.086;2024-01-15T04:49:19;66.93;;;18.98;;
35444;SDS011;21562;49.476;6.086;2024-01-15T04:51:44;60.55;;;17.42;;
35444;SDS011;21562;49.476;6.086;2024-01-15T04:54:10;78.07;;;21.05;;
35444;SDS011;21562;49.476;6.086;2024-01-15T04:56:36;67.22;;;18.55;;
35444;SDS011;21562;49.476;6.086;2024-01-15T04:59:02;79.03;;;21.02;;
35444;SDS011;21562;49.476;6.086;2024-01-15T05:01:34;71.00;;;19.52;;
35444;SDS011;21562;49.476;6.086;2024-01-15T05:04:00;64.38;;;18.58;;
35444;SDS011;21562;49.476;6.086;2024-01-15T05:06:25;72.97;;;22.15;;
35444;SDS011;21562;49.476;6.086;2024-01-15T05:08:51;76.70;;;20.98;;
35444;SDS011;21562;49.476;6.086;2024-01-15T05:11:17;61.90;;;20.10;;
35444;SDS011;21562;49.476;6.086;2024-01-15T05:13:43;73.25;;;22.25;;
35444;SDS011;21562;49.476;6.086;2024-01-15T05:16:08;71.30;;;20.92;;
35444;SDS011;21562;49.476;6.086;2024-01-15T05:18:34;64.53;;;18.73;;
35444;SDS011;21562;49.476;6.086;2024-01-15T05:20:59;72.07;;;22.08;;
35444;SDS011;21562;49.476;6.086;2024-01-15T05:23:25;68.38;;;19.65;;
35444;SDS011;21562;49.476;6.086;2024-01-15T05:25:51;71.43;;;20.58;;
35444;SDS011;21562;49.476;6.086;2024-01-15T05:28:16;73.03;;;19.55;;
35444;SDS011;21562;49.476;6.086;2024-01-15T05:30:42;65.90;;;20.58;;
35444;SDS011;21562;49.476;6.086;2024-01-15T05:33:08;71.97;;;19.52;;
35444;SDS011;21562;49.476;6.086;2024-01-15T05:35:34;66.10;;;19.55;;
35444;SDS011;21562;49.476;6.086;2024-01-15T05:37:59;73.70;;;18.67;;
35444;SDS011;21562;49.476;6.086;2024-01-15T05:40:25;72.68;;;21.88;;
35444;SDS011;21562;49.476;6.086;2024-01-15T05:42:50;77.68;;;20.63;;
35444;SDS011;21562;49.476;6.086;2024-01-15T05:45:16;61.35;;;17.75;;
35444;SDS011;21562;49.476;6.086;2024-01-15T05:47:42;66.85;;;19.08;;
35444;SDS011;21562;49.476;6.086;2024-01-15T05:50:09;72.07;;;19.70;;
35444;SDS011;21562;49.476;6.086;2024-01-15T05:52:35;72.60;;;20.48;;
35444;SDS011;21562;49.476;6.086;2024-01-15T05:55:01;83.75;;;21.17;;
35444;SDS011;21562;49.476;6.086;2024-01-15T05:57:27;72.28;;;21.75;;
35444;SDS011;21562;49.476;6.086;2024-01-15T05:59:53;77.15;;;21.38;;
35444;SDS011;21562;49.476;6.086;2024-01-15T06:02:18;85.20;;;22.02;;
35444;SDS011;21562;49.476;6.086;2024-01-15T06:04:44;73.82;;;20.35;;
35444;SDS011;21562;49.476;6.086;2024-01-15T06:07:10;68.75;;;18.83;;
35444;SDS011;21562;49.476;6.086;2024-01-15T06:09:35;70.30;;;22.17;;
35444;SDS011;21562;49.476;6.086;2024-01-15T06:12:01;67.25;;;22.20;;
35444;SDS011;21562;49.476;6.086;2024-01-15T06:14:27;65.55;;;19.02;;
35444;SDS011;21562;49.476;6.086;2024-01-15T06:16:52;62.97;;;18.92;;
35444;SDS011;21562;49.476;6.086;2024-01-15T06:19:18;71.63;;;20.10;;
35444;SDS011;21562;49.476;6.086;2024-01-15T06:21:44;66.15;;;20.95;;
35444;SDS011;21562;49.476;6.086;2024-01-15T06:24:09;71.78;;;20.52;;
35444;SDS011;21562;49.476;6.086;2024-01-15T06:26:35;68.97;;;18.92;;
35444;SDS011;21562;49.476;6.086;2024-01-15T06:29:01;71.40;;;20.42;;
35444;SDS011;21562;49.476;6.086;2024-01-15T06:31:28;68.00;;;20.52;;
35444;SDS011;21562;49.476;6.086;2024-01-15T06:33:54;74.20;;;19.77;;
35444;SDS011;21562;49.476;6.086;2024-01-15T06:36:21;73.53;;;22.77;;
35444;SDS011;21562;49.476;6.086;2024-01-15T06:38:46;67.13;;;20.17;;
35444;SDS011;21562;49.476;6.086;2024-01-15T06:41:12;71.00;;;21.67;;
35444;SDS011;21562;49.476;6.086;2024-01-15T06:43:38;69.40;;;19.40;;
35444;SDS011;21562;49.476;6.086;2024-01-15T06:46:03;75.72;;;20.23;;
35444;SDS011;21562;49.476;6.086;2024-01-15T06:48:29;60.75;;;18.00;;
35444;SDS011;21562;49.476;6.086;2024-01-15T06:50:55;56.03;;;18.40;;
35444;SDS011;21562;49.476;6.086;2024-01-15T06:53:21;61.20;;;18.67;;
35444;SDS011;21562;49.476;6.086;2024-01-15T06:55:47;56.72;;;18.42;;
35444;SDS011;21562;49.476;6.086;2024-01-15T06:58:14;55.42;;;17.95;;
35444;SDS011;21562;49.476;6.086;2024-01-15T07:00:39;48.13;;;15.10;;
35444;SDS011;21562;49.476;6.086;2024-01-15T07:03:05;48.30;;;16.92;;
35444;SDS011;21562;49.476;6.086;2024-01-15T07:05:32;50.50;;;16.17;;
35444;SDS011;21562;49.476;6.086;2024-01-15T07:07:58;49.22;;;16.92;;
35444;SDS011;21562;49.476;6.086;2024-01-15T07:10:23;48.45;;;16.25;;
35444;SDS011;21562;49.476;6.086;2024-01-15T07:12:49;50.85;;;17.52;;
35444;SDS011;21562;49.476;6.086;2024-01-15T07:15:15;46.67;;;15.23;;
35444;SDS011;21562;49.476;6.086;2024-01-15T07:17:41;43.25;;;14.77;;
35444;SDS011;21562;49.476;6.086;2024-01-15T07:20:08;44.55;;;15.45;;
35444;SDS011;21562;49.476;6.086;2024-01-15T07:22:37;25.10;;;6.55;;
35444;SDS011;21562;49.476;6.086;2024-01-15T07:25:03;44.95;;;16.05;;
35444;SDS011;21562;49.476;6.086;2024-01-15T07:27:32;51.33;;;20.55;;
35444;SDS011;21562;49.476;6.086;2024-01-15T07:29:58;45.92;;;15.30;;
35444;SDS011;21562;49.476;6.086;2024-01-15T07:32:24;47.30;;;15.45;;
35444;SDS011;21562;49.476;6.086;2024-01-15T07:34:49;44.17;;;14.80;;
35444;SDS011;21562;49.476;6.086;2024-01-15T07:37:15;40.88;;;15.90;;
35444;SDS011;21562;49.476;6.086;2024-01-15T07:39:41;32.33;;;11.60;;
35444;SDS011;21562;49.476;6.086;2024-01-15T07:42:06;38.22;;;13.20;;
35444;SDS011;21562;49.476;6.086;2024-01-15T07:44:32;30.65;;;11.13;;
35444;SDS011;21562;49.476;6.086;2024-01-15T07:46:58;42.35;;;14.55;;
35444;SDS011;21562;49.476;6.086;2024-01-15T07:49:24;38.67;;;13.07;;
35444;SDS011;21562;49.476;6.086;2024-01-15T07:51:50;33.83;;;11.30;;
35444;SDS011;21562;49.476;6.086;2024-01-15T07:54:15;36.22;;;12.60;;
35444;SDS011;21562;49.476;6.086;2024-01-15T07:56:54;30.15;;;11.88;;
35444;SDS011;21562;49.476;6.086;2024-01-15T07:59:25;37.05;;;14.30;;
35444;SDS011;21562;49.476;6.086;2024-01-15T08:01:51;36.88;;;12.23;;
35444;SDS011;21562;49.476;6.086;2024-01-15T08:04:18;38.38;;;13.65;;
35444;SDS011;21562;49.476;6.086;2024-01-15T08:06:44;34.85;;;11.93;;
35444;SDS011;21562;49.476;6.086;2024-01-15T08:09:10;35.75;;;13.65;;
35444;SDS011;21562;49.476;6.086;2024-01-15T08:11:36;38.17;;;13.60;;
35444;SDS011;21562;49.476;6.086;2024-01-15T08:14:04;35.90;;;12.70;;
35444;SDS011;21562;49.476;6.086;2024-01-15T08:16:29;41.47;;;14.30;;
35444;SDS011;21562;49.476;6.086;2024-01-15T08:18:55;41.97;;;15.70;;
35444;SDS011;21562;49.476;6.086;2024-01-15T08:21:21;44.95;;;14.57;;
35444;SDS011;21562;49.476;6.086;2024-01-15T08:23:47;40.33;;;15.52;;
35444;SDS011;21562;49.476;6.086;2024-01-15T08:26:13;50.72;;;17.27;;
35444;SDS011;21562;49.476;6.086;2024-01-15T08:28:38;46.05;;;14.82;;
35444;SDS011;21562;49.476;6.086;2024-01-15T08:31:04;49.78;;;16.38;;
35444;SDS011;21562;49.476;6.086;2024-01-15T08:33:29;45.17;;;14.52;;
35444;SDS011;21562;49.476;6.086;2024-01-15T08:35:55;49.40;;;15.95;;
35444;SDS011;21562;49.476;6.086;2024-01-15T08:38:21;50.83;;;16.00;;
35444;SDS011;21562;49.476;6.086;2024-01-15T08:40:47;50.80;;;17.33;;
35444;SDS011;21562;49.476;6.086;2024-01-15T08:43:14;59.90;;;17.90;;
35444;SDS011;21562;49.476;6.086;2024-01-15T08:45:40;54.22;;;16.55;;
35444;SDS011;21562;49.476;6.086;2024-01-15T08:48:05;52.15;;;16.70;;
35444;SDS011;21562;49.476;6.086;2024-01-15T08:50:32;48.47;;;16.00;;
35444;SDS011;21562;49.476;6.086;2024-01-15T08:52:58;57.30;;;17.13;;
35444;SDS011;21562;49.476;6.086;2024-01-15T08:55:24;53.17;;;17.80;;
35444;SDS011;21562;49.476;6.086;2024-01-15T08:57:50;46.08;;;14.55;;
35444;SDS011;21562;49.476;6.086;2024-01-15T09:00:15;44.67;;;13.82;;
35444;SDS011;21562;49.476;6.086;2024-01-15T09:02:42;38.72;;;12.93;;
35444;SDS011;21562;49.476;6.086;2024-01-15T09:05:08;37.20;;;13.57;;
35444;SDS011;21562;49.476;6.086;2024-01-15T09:07:34;38.03;;;12.43;;
35444;SDS011;21562;49.476;6.086;2024-01-15T09:10:00;37.72;;;13.70;;
35444;SDS011;21562;49.476;6.086;2024-01-15T09:12:26;37.53;;;13.90;;
35444;SDS011;21562;49.476;6.086;2024-01-15T09:14:52;36.50;;;13.48;;
35444;SDS011;21562;49.476;6.086;2024-01-15T09:17:19;37.63;;;13.57;;
35444;SDS011;21562;49.476;6.086;2024-01-15T09:19:45;33.92;;;12.32;;
35444;SDS011;21562;49.476;6.086;2024-01-15T09:22:12;35.33;;;11.60;;
35444;SDS011;21562;49.476;6.086;2024-01-15T09:24:40;30.63;;;11.52;;
35444;SDS011;21562;49.476;6.086;2024-01-15T09:27:06;30.65;;;10.55;;
35444;SDS011;21562;49.476;6.086;2024-01-15T09:29:32;28.63;;;11.18;;
35444;SDS011;21562;49.476;6.086;2024-01-15T09:31:58;25.98;;;10.43;;
35444;SDS011;21562;49.476;6.086;2024-01-15T09:34:24;25.77;;;10.57;;
35444;SDS011;21562;49.476;6.086;2024-01-15T09:36:50;24.10;;;8.77;;
35444;SDS011;21562;49.476;6.086;2024-01-15T09:39:16;22.08;;;9.35;;
35444;SDS011;21562;49.476;6.086;2024-01-15T09:41:42;27.23;;;9.70;;
35444;SDS011;21562;49.476;6.086;2024-01-15T09:44:08;23.55;;;10.13;;
35444;SDS011;21562;49.476;6.086;2024-01-15T09:46:35;22.65;;;9.75;;
35444;SDS011;21562;49.476;6.086;2024-01-15T09:49:01;26.98;;;9.77;;
35444;SDS011;21562;49.476;6.086;2024-01-15T09:51:28;30.77;;;11.13;;
35444;SDS011;21562;49.476;6.086;2024-01-15T09:53:58;23.88;;;10.25;;
35444;SDS011;21562;49.476;6.086;2024-01-15T09:56:24;27.20;;;10.30;;
35444;SDS011;21562;49.476;6.086;2024-01-15T09:58:49;25.30;;;12.05;;
35444;SDS011;21562;49.476;6.086;2024-01-15T10:01:17;27.50;;;10.68;;
35444;SDS011;21562;49.476;6.086;2024-01-15T10:03:46;26.23;;;10.60;;
35444;SDS011;21562;49.476;6.086;2024-01-15T10:06:13;29.15;;;12.85;;
35444;SDS011;21562;49.476;6.086;2024-01-15T10:08:47;30.10;;;12.13;;
35444;SDS011;21562;49.476;6.086;2024-01-15T10:11:15;30.90;;;12.02;;
35444;SDS011;21562;49.476;6.086;2024-01-15T10:13:42;32.08;;;12.70;;
35444;SDS011;21562;49.476;6.086;2024-01-15T10:16:09;29.95;;;12.48;;
35444;SDS011;21562;49.476;6.086;2024-01-15T10:18:36;32.83;;;13.57;;
35444;SDS011;21562;49.476;6.086;2024-01-15T10:21:11;34.00;;;13.95;;
35444;SDS011;21562;49.476;6.086;2024-01-15T10:23:37;35.30;;;14.93;;
35444;SDS011;21562;49.476;6.086;2024-01-15T10:26:02;30.73;;;12.93;;
35444;SDS011;21562;49.476;6.086;2024-01-15T10:28:29;33.00;;;12.45;;
35444;SDS011;21562;49.476;6.086;2024-01-15T10:30:57;31.88;;;12.82;;
35444;SDS011;21562;49.476;6.086;2024-01-15T10:33:24;37.33;;;14.05;;
35444;SDS011;21562;49.476;6.086;2024-01-15T10:35:53;32.80;;;13.25;;
35444;SDS011;21562;49.476;6.086;2024-01-15T10:38:23;34.28;;;14.05;;
35444;SDS011;21562;49.476;6.086;2024-01-15T10:40:52;33.22;;;13.05;;
35444;SDS011;21562;49.476;6.086;2024-01-15T10:43:21;34.15;;;13.65;;
35444;SDS011;21562;49.476;6.086;2024-01-15T10:45:48;33.65;;;13.90;;
35444;SDS011;21562;49.476;6.086;2024-01-15T10:48:18;32.60;;;14.10;;
35444;SDS011;21562;49.476;6.086;2024-01-15T10:50:44;31.02;;;12.32;;
35444;SDS011;21562;49.476;6.086;2024-01-15T10:53:11;35.17;;;12.13;;
35444;SDS011;21562;49.476;6.086;2024-01-15T10:55:38;37.25;;;14.43;;
35444;SDS011;21562;49.476;6.086;2024-01-15T10:58:06;32.58;;;14.18;;
35444;SDS011;21562;49.476;6.086;2024-01-15T11:00:33;36.85;;;14.65;;
35444;SDS011;21562;49.476;6.086;2024-01-15T11:03:03;39.03;;;14.00;;
35444;SDS011;21562;49.476;6.086;2024-01-15T11:05:36;34.17;;;12.88;;
35444;SDS011;21562;49.476;6.086;2024-01-15T11:08:05;30.10;;;13.40;;
35444;SDS011;21562;49.476;6.086;2024-01-15T11:10:38;37.08;;;13.75;;
35444;SDS011;21562;49.476;6.086;2024-01-15T11:18:30;31.48;;;12.70;;
35444;SDS011;21562;49.476;6.086;2024-01-15T11:24:14;32.85;;;12.52;;
35444;SDS011;21562;49.476;6.086;2024-01-15T11:26:45;29.65;;;11.98;;
35444;SDS011;21562;49.476;6.086;2024-01-15T11:31:56;30.13;;;13.02;;
35444;SDS011;21562;49.476;6.086;2024-01-15T11:35:09;31.35;;;11.70;;
35444;SDS011;21562;49.476;6.086;2024-01-15T11:37:22;29.80;;;10.50;;
35444;SDS011;21562;49.476;6.086;2024-01-15T11:39:50;32.63;;;13.30;;
35444;SDS011;21562;49.476;6.086;2024-01-15T11:42:20;29.55;;;13.30;;
35444;SDS011;21562;49.476;6.086;2024-01-15T11:44:46;28.00;;;12.00;;
35444;SDS011;21562;49.476;6.086;2024-01-15T11:47:13;30.83;;;10.95;;
35444;SDS011;21562;49.476;6.086;2024-01-15T11:52:20;33.30;;;12.45;;
35444;SDS011;21562;49.476;6.086;2024-01-15T11:54:56;33.17;;;13.45;;
35444;SDS011;21562;49.476;6.086;2024-01-15T11:57:34;30.15;;;11.60;;
35444;SDS011;21562;49.476;6.086;2024-01-15T12:00:14;25.27;;;10.25;;
35444;SDS011;21562;49.476;6.086;2024-01-15T12:02:43;35.45;;;11.93;;
35444;SDS011;21562;49.476;6.086;2024-01-15T12:05:14;31.10;;;12.30;;
35444;SDS011;21562;49.476;6.086;2024-01-15T12:07:41;28.52;;;11.38;;
35444;SDS011;21562;49.476;6.086;2024-01-15T12:10:08;33.78;;;12.15;;
35444;SDS011;21562;49.476;6.086;2024-01-15T12:12:47;31.77;;;12.52;;
35444;SDS011;21562;49.476;6.086;2024-01-15T12:15:26;27.50;;;11.52;;
35444;SDS011;21562;49.476;6.086;2024-01-15T12:17:57;29.92;;;12.45;;
35444;SDS011;21562;49.476;6.086;2024-01-15T12:20:24;24.70;;;10.70;;
35444;SDS011;21562;49.476;6.086;2024-01-15T12:22:51;26.63;;;9.98;;
35444;SDS011;21562;49.476;6.086;2024-01-15T12:25:17;20.85;;;9.43;;
35444;SDS011;21562;49.476;6.086;2024-01-15T12:27:43;24.13;;;9.93;;
35444;SDS011;21562;49.476;6.086;2024-01-15T12:30:13;25.35;;;9.35;;
35444;SDS011;21562;49.476;6.086;2024-01-15T12:32:40;21.42;;;9.50;;
35444;SDS011;21562;49.476;6.086;2024-01-15T12:35:12;17.17;;;7.38;;
35444;SDS011;21562;49.476;6.086;2024-01-15T12:37:39;24.00;;;9.65;;
35444;SDS011;21562;49.476;6.086;2024-01-15T12:40:06;22.80;;;10.07;;
35444;SDS011;21562;49.476;6.086;2024-01-15T12:42:33;22.38;;;9.65;;
35444;SDS011;21562;49.476;6.086;2024-01-15T12:44:59;22.85;;;9.27;;
35444;SDS011;21562;49.476;6.086;2024-01-15T12:47:25;23.50;;;7.80;;
35444;SDS011;21562;49.476;6.086;2024-01-15T12:49:54;20.08;;;8.75;;
35444;SDS011;21562;49.476;6.086;2024-01-15T12:52:21;21.08;;;8.30;;
35444;SDS011;21562;49.476;6.086;2024-01-15T12:54:47;23.25;;;9.07;;
35444;SDS011;21562;49.476;6.086;2024-01-15T12:57:14;20.88;;;9.32;;
35444;SDS011;21562;49.476;6.086;2024-01-15T12:59:39;19.23;;;8.85;;
35444;SDS011;21562;49.476;6.086;2024-01-15T13:02:05;27.27;;;9.63;;
35444;SDS011;21562;49.476;6.086;2024-01-15T13:04:32;17.88;;;7.20;;
35444;SDS011;21562;49.476;6.086;2024-01-15T13:06:57;16.25;;;6.97;;
35444;SDS011;21562;49.476;6.086;2024-01-15T13:09:23;14.77;;;6.65;;
35444;SDS011;21562;49.476;6.086;2024-01-15T13:11:49;15.55;;;7.10;;
35444;SDS011;21562;49.476;6.086;2024-01-15T13:14:14;18.02;;;6.50;;
35444;SDS011;21562;49.476;6.086;2024-01-15T13:16:40;16.33;;;6.85;;
35444;SDS011;21562;49.476;6.086;2024-01-15T13:19:07;12.30;;;5.68;;
35444;SDS011;21562;49.476;6.086;2024-01-15T13:21:34;15.77;;;6.07;;
35444;SDS011;21562;49.476;6.086;2024-01-15T13:23:59;17.55;;;6.15;;
35444;SDS011;21562;49.476;6.086;2024-01-15T13:26:25;18.30;;;5.38;;
35444;SDS011;21562;49.476;6.086;2024-01-15T13:28:51;15.98;;;4.65;;
35444;SDS011;21562;49.476;6.086;2024-01-15T13:31:16;12.68;;;5.65;;
35444;SDS011;21562;49.476;6.086;2024-01-15T13:33:42;12.73;;;5.70;;
35444;SDS011;21562;49.476;6.086;2024-01-15T13:36:08;21.13;;;4.85;;
35444;SDS011;21562;49.476;6.086;2024-01-15T13:38:36;11.35;;;4.95;;
35444;SDS011;21562;49.476;6.086;2024-01-15T13:41:03;10.05;;;4.30;;
35444;SDS011;21562;49.476;6.086;2024-01-15T13:43:29;15.43;;;4.43;;
35444;SDS011;21562;49.476;6.086;2024-01-15T13:45:56;9.75;;;4.30;;
35444;SDS011;21562;49.476;6.086;2024-01-15T13:48:22;11.52;;;3.75;;
35444;SDS011;21562;49.476;6.086;2024-01-15T13:50:47;16.15;;;4.97;;
35444;SDS011;21562;49.476;6.086;2024-01-15T13:53:13;9.30;;;4.07;;
35444;SDS011;21562;49.476;6.086;2024-01-15T13:55:39;8.23;;;3.25;;
35444;SDS011;21562;49.476;6.086;2024-01-15T13:58:05;14.93;;;4.32;;
35444;SDS011;21562;49.476;6.086;2024-01-15T14:00:31;14.10;;;3.70;;
35444;SDS011;21562;49.476;6.086;2024-01-15T14:02:57;13.13;;;3.72;;
35444;SDS011;21562;49.476;6.086;2024-01-15T14:05:23;12.32;;;3.17;;
35444;SDS011;21562;49.476;6.086;2024-01-15T14:07:49;7.75;;;3.03;;
35444;SDS011;21562;49.476;6.086;2024-01-15T14:10:14;6.53;;;2.63;;
35444;SDS011;21562;49.476;6.086;2024-01-15T14:12:40;7.25;;;3.13;;
35444;SDS011;21562;49.476;6.086;2024-01-15T14:15:06;9.77;;;3.08;;
35444;SDS011;21562;49.476;6.086;2024-01-15T14:17:33;7.72;;;3.00;;
35444;SDS011;21562;49.476;6.086;2024-01-15T14:19:58;6.80;;;2.67;;
35444;SDS011;21562;49.476;6.086;2024-01-15T14:22:24;9.80;;;3.28;;
35444;SDS011;21562;49.476;6.086;2024-01-15T14:24:50;5.35;;;2.05;;
35444;SDS011;21562;49.476;6.086;2024-01-15T14:27:16;9.45;;;3.15;;
35444;SDS011;21562;49.476;6.086;2024-01-15T14:29:42;7.97;;;3.15;;
35444;SDS011;21562;49.476;6.086;2024-01-15T14:32:07;11.38;;;3.90;;
35444;SDS011;21562;49.476;6.086;2024-01-15T14:34:33;18.75;;;3.92;;